AGROMETEOROLOŠKI PORTAL

vinorodna pokrajina

Temelj dobrega kmetovanja

Pregled podatkov za lokacijo Krško DRSI, meteorološka postaja 178

Pregled senzorjev na lokaciji

ID Ime Zadnja
vrednost
Datum in čas
meritve
(lokalni čas)
Tip
senzorja
6209 Zračni tlak (hPa) 1003 hPa 4.10.2022 16:00 DRSI
6206 Relativna zračna vlaga (2 m) (% RH) 49 % RH 4.10.2022 16:00 DRSI
6205 Temperatura (2 m) (°C) 19,7 °C 4.10.2022 16:00 DRSI
6208 Smer vetra (2 m) (°) 101 ° 4.10.2022 16:00 DRSI
6207 Hitrost vetra (2 m) (km/h) 1 km/h 4.10.2022 16:00 DRSI

Pregled podatkov zadnjih 24 ur

Zap.
št.
Datum in čas
(lokalni čas)
Krško DRSI
Zračni
tlak
Relativna
zračna
vlaga
(2
m)
Temperatura
(2
m)
Smer
vetra
(2
m)
Hitrost
vetra
(2
m)
1 4.10.2022 16:00 1002,9 49 19,7 101 1,3
2 4.10.2022 15:30 1002,9 48,7 20 1,3
3 4.10.2022 15:00 1003,9 49,3 20 101 1,3
4 4.10.2022 14:30 1003,9 50,3 20 180 2,3
5 4.10.2022 14:00 1003,9 54 18,7 180 1,1
6 4.10.2022 13:30 1003,9 56,7 17 172,3 3
7 4.10.2022 13:00 1003,9 58,3 17 168,5 2,3
8 4.10.2022 12:30 1003,9 65,7 16,3 146 1,9
9 4.10.2022 12:00 1004,5 74 15,3 180 3,6
10 4.10.2022 11:30 1004,9 80 14,7 146 2
11 4.10.2022 11:00 1004,9 90,3 11,7 33,5 0,7
12 4.10.2022 10:30 1005,8 96,7 10,3 51,9 4,6
13 4.10.2022 10:00 1005,8 100 9,3 90 4,9
14 4.10.2022 09:30 1005,8 100 8,3 6,2
15 4.10.2022 09:00 1005,8 100 7 51,9 4,3
16 4.10.2022 08:30 1005,8 100 7 22,3 3,6
17 4.10.2022 08:00 1005,8 100 7 22,3 4,6
18 4.10.2022 07:30 1005,8 100 6 30,4 3,6
19 4.10.2022 07:00 1004,9 100 6,7 29,6 2,6
20 4.10.2022 06:30 1004,9 100 7 22 2,6
21 4.10.2022 06:00 1004,9 100 7 29,6 2
22 4.10.2022 05:30 1004,9 100 7 45 1
23 4.10.2022 05:00 1004,9 100 7 29,6 3,2
24 4.10.2022 04:30 1004,9 100 7 29,6 4
25 4.10.2022 04:00 1004,9 100 7,7 45 1,3
26 4.10.2022 03:30 1004,9 100 7,3 45 4,3
27 4.10.2022 03:00 1005,2 100 7,3 37,4 4
28 4.10.2022 02:30 1004,9 99,3 8 37,4 2,6
29 4.10.2022 02:00 1004,9 98,7 8,7 22 3,2
30 4.10.2022 01:30 1004,9 96,3 9 29,6 7,3
31 4.10.2022 01:00 1004,9 94,3 9,3 29,6 6,6
32 4.10.2022 00:30 1004,9 93,7 10 45 4
33 4.10.2022 00:00 1004,9 91,3 10 29,6 3,4
34 3.10.2022 23:30 1004,9 89,7 10 22 3,7
35 3.10.2022 23:00 1004,2 89,7 10 29,6 3,6
36 3.10.2022 22:30 1003,9 88,3 10,7 45 2,6
37 3.10.2022 22:00 1003,9 88 11 37,4 5,3
38 3.10.2022 21:30 1003,9 86,3 11 22 3
39 3.10.2022 21:00 1003,2 85 12 29,6 3,6
40 3.10.2022 20:30 1002,9 84 12 0
41 3.10.2022 20:00 1002,9 84,7 12,3 0
42 3.10.2022 19:30 1001,9 81 13,7 22 1,3
43 3.10.2022 19:00 1001,9 74,7 15 22,5 1,7
44 3.10.2022 18:30 1001,3 72,7 15,7 22 1,3
45 3.10.2022 18:00 1000,9 65,7 16,7 22 1,7
46 3.10.2022 17:30 1000,9 58 18,3 22 0,4